sensor_id;sensor_type;location;lat;lon;timestamp;P1;durP1;ratioP1;P2;durP2;ratioP2
17917;SDS011;9084;50.956;3.106;2022-08-21T00:02:22;4.43;;;2.10;;
17917;SDS011;9084;50.956;3.106;2022-08-21T00:04:48;3.97;;;2.28;;
17917;SDS011;9084;50.956;3.106;2022-08-21T00:07:15;3.15;;;1.92;;
17917;SDS011;9084;50.956;3.106;2022-08-21T00:09:44;5.13;;;2.22;;
17917;SDS011;9084;50.956;3.106;2022-08-21T00:12:12;3.72;;;1.95;;
17917;SDS011;9084;50.956;3.106;2022-08-21T00:14:38;4.50;;;2.20;;
17917;SDS011;9084;50.956;3.106;2022-08-21T00:17:07;4.88;;;1.98;;
17917;SDS011;9084;50.956;3.106;2022-08-21T00:19:33;5.35;;;2.60;;
17917;SDS011;9084;50.956;3.106;2022-08-21T00:21:58;5.63;;;2.28;;
17917;SDS011;9084;50.956;3.106;2022-08-21T00:24:27;2.92;;;2.08;;
17917;SDS011;9084;50.956;3.106;2022-08-21T00:26:52;7.85;;;2.60;;
17917;SDS011;9084;50.956;3.106;2022-08-21T00:29:20;3.63;;;1.90;;
17917;SDS011;9084;50.956;3.106;2022-08-21T00:31:46;2.33;;;1.73;;
17917;SDS011;9084;50.956;3.106;2022-08-21T00:34:13;5.13;;;2.13;;
17917;SDS011;9084;50.956;3.106;2022-08-21T00:36:39;3.33;;;2.08;;
17917;SDS011;9084;50.956;3.106;2022-08-21T00:39:05;7.28;;;2.33;;
17917;SDS011;9084;50.956;3.106;2022-08-21T00:41:33;3.60;;;2.13;;
17917;SDS011;9084;50.956;3.106;2022-08-21T00:44:00;3.65;;;1.80;;
17917;SDS011;9084;50.956;3.106;2022-08-21T00:46:26;4.57;;;1.92;;
17917;SDS011;9084;50.956;3.106;2022-08-21T00:48:54;3.85;;;2.35;;
17917;SDS011;9084;50.956;3.106;2022-08-21T00:51:23;3.80;;;1.85;;
17917;SDS011;9084;50.956;3.106;2022-08-21T00:54:10;7.72;;;2.25;;
17917;SDS011;9084;50.956;3.106;2022-08-21T00:56:37;3.40;;;2.08;;
17917;SDS011;9084;50.956;3.106;2022-08-21T00:59:03;4.70;;;1.55;;
17917;SDS011;9084;50.956;3.106;2022-08-21T01:01:30;5.85;;;1.95;;
17917;SDS011;9084;50.956;3.106;2022-08-21T01:03:56;3.63;;;1.70;;
17917;SDS011;9084;50.956;3.106;2022-08-21T01:06:22;2.28;;;1.60;;
17917;SDS011;9084;50.956;3.106;2022-08-21T01:08:48;3.30;;;1.92;;
17917;SDS011;9084;50.956;3.106;2022-08-21T01:11:19;2.47;;;1.73;;
17917;SDS011;9084;50.956;3.106;2022-08-21T01:13:48;3.72;;;1.98;;
17917;SDS011;9084;50.956;3.106;2022-08-21T01:16:15;4.50;;;1.90;;
17917;SDS011;9084;50.956;3.106;2022-08-21T01:18:44;2.80;;;1.60;;
17917;SDS011;9084;50.956;3.106;2022-08-21T01:21:21;4.50;;;1.60;;
17917;SDS011;9084;50.956;3.106;2022-08-21T01:23:52;4.05;;;1.70;;
17917;SDS011;9084;50.956;3.106;2022-08-21T01:26:22;4.32;;;1.90;;
17917;SDS011;9084;50.956;3.106;2022-08-21T01:29:00;2.85;;;1.60;;
17917;SDS011;9084;50.956;3.106;2022-08-21T01:31:27;4.60;;;2.28;;
17917;SDS011;9084;50.956;3.106;2022-08-21T01:33:56;5.13;;;1.85;;
17917;SDS011;9084;50.956;3.106;2022-08-21T01:36:23;4.43;;;1.88;;
17917;SDS011;9084;50.956;3.106;2022-08-21T01:38:51;4.20;;;1.90;;
17917;SDS011;9084;50.956;3.106;2022-08-21T01:41:17;3.70;;;1.48;;
17917;SDS011;9084;50.956;3.106;2022-08-21T01:43:43;4.88;;;2.00;;
17917;SDS011;9084;50.956;3.106;2022-08-21T01:46:10;4.28;;;1.75;;
17917;SDS011;9084;50.956;3.106;2022-08-21T01:48:37;5.00;;;1.63;;
17917;SDS011;9084;50.956;3.106;2022-08-21T01:51:05;3.90;;;2.00;;
17917;SDS011;9084;50.956;3.106;2022-08-21T01:53:32;3.47;;;1.77;;
17917;SDS011;9084;50.956;3.106;2022-08-21T01:56:02;3.30;;;1.52;;
17917;SDS011;9084;50.956;3.106;2022-08-21T01:58:31;3.95;;;1.98;;
17917;SDS011;9084;50.956;3.106;2022-08-21T02:00:58;3.35;;;1.98;;
17917;SDS011;9084;50.956;3.106;2022-08-21T02:03:29;3.90;;;2.08;;
17917;SDS011;9084;50.956;3.106;2022-08-21T02:05:57;4.03;;;2.00;;
17917;SDS011;9084;50.956;3.106;2022-08-21T02:08:25;3.35;;;1.70;;
17917;SDS011;9084;50.956;3.106;2022-08-21T02:10:52;6.07;;;2.15;;
17917;SDS011;9084;50.956;3.106;2022-08-21T02:13:18;6.93;;;1.77;;
17917;SDS011;9084;50.956;3.106;2022-08-21T02:15:44;4.10;;;1.88;;
17917;SDS011;9084;50.956;3.106;2022-08-21T02:18:12;3.45;;;1.70;;
17917;SDS011;9084;50.956;3.106;2022-08-21T02:20:40;4.57;;;1.77;;
17917;SDS011;9084;50.956;3.106;2022-08-21T02:23:11;3.47;;;1.40;;
17917;SDS011;9084;50.956;3.106;2022-08-21T02:25:38;2.63;;;1.52;;
17917;SDS011;9084;50.956;3.106;2022-08-21T02:28:05;4.30;;;1.70;;
17917;SDS011;9084;50.956;3.106;2022-08-21T02:30:36;3.80;;;1.70;;
17917;SDS011;9084;50.956;3.106;2022-08-21T02:33:05;3.03;;;1.75;;
17917;SDS011;9084;50.956;3.106;2022-08-21T02:35:32;3.80;;;1.75;;
17917;SDS011;9084;50.956;3.106;2022-08-21T02:38:01;4.40;;;2.45;;
17917;SDS011;9084;50.956;3.106;2022-08-21T02:40:34;3.38;;;1.80;;
17917;SDS011;9084;50.956;3.106;2022-08-21T02:43:03;3.38;;;1.90;;
17917;SDS011;9084;50.956;3.106;2022-08-21T02:45:30;4.93;;;1.98;;
17917;SDS011;9084;50.956;3.106;2022-08-21T02:48:06;5.78;;;1.70;;
17917;SDS011;9084;50.956;3.106;2022-08-21T02:50:38;5.35;;;2.38;;
17917;SDS011;9084;50.956;3.106;2022-08-21T02:53:05;3.67;;;1.75;;
17917;SDS011;9084;50.956;3.106;2022-08-21T02:55:36;4.28;;;2.17;;
17917;SDS011;9084;50.956;3.106;2022-08-21T02:58:03;6.60;;;2.30;;
17917;SDS011;9084;50.956;3.106;2022-08-21T03:00:33;4.45;;;1.98;;
17917;SDS011;9084;50.956;3.106;2022-08-21T03:03:00;4.80;;;2.50;;
17917;SDS011;9084;50.956;3.106;2022-08-21T03:05:29;4.63;;;2.58;;
17917;SDS011;9084;50.956;3.106;2022-08-21T03:07:59;4.82;;;2.53;;
17917;SDS011;9084;50.956;3.106;2022-08-21T03:10:26;2.92;;;2.15;;
17917;SDS011;9084;50.956;3.106;2022-08-21T03:12:58;5.63;;;2.42;;
17917;SDS011;9084;50.956;3.106;2022-08-21T03:15:24;2.20;;;1.88;;
17917;SDS011;9084;50.956;3.106;2022-08-21T03:17:54;7.35;;;2.03;;
17917;SDS011;9084;50.956;3.106;2022-08-21T03:20:23;5.13;;;3.20;;
17917;SDS011;9084;50.956;3.106;2022-08-21T03:22:54;5.82;;;2.72;;
17917;SDS011;9084;50.956;3.106;2022-08-21T03:25:21;7.45;;;3.15;;
17917;SDS011;9084;50.956;3.106;2022-08-21T03:27:48;4.32;;;2.50;;
17917;SDS011;9084;50.956;3.106;2022-08-21T03:30:15;6.90;;;2.60;;
17917;SDS011;9084;50.956;3.106;2022-08-21T03:32:42;4.05;;;2.70;;
17917;SDS011;9084;50.956;3.106;2022-08-21T03:35:08;4.60;;;2.88;;
17917;SDS011;9084;50.956;3.106;2022-08-21T03:37:37;5.28;;;2.45;;
17917;SDS011;9084;50.956;3.106;2022-08-21T03:40:04;4.63;;;2.50;;
17917;SDS011;9084;50.956;3.106;2022-08-21T03:42:31;2.92;;;2.30;;
17917;SDS011;9084;50.956;3.106;2022-08-21T03:45:02;5.32;;;2.63;;
17917;SDS011;9084;50.956;3.106;2022-08-21T03:47:29;4.07;;;2.20;;
17917;SDS011;9084;50.956;3.106;2022-08-21T03:49:54;4.00;;;2.10;;
17917;SDS011;9084;50.956;3.106;2022-08-21T03:52:20;5.07;;;2.50;;
17917;SDS011;9084;50.956;3.106;2022-08-21T03:54:46;5.50;;;3.00;;
17917;SDS011;9084;50.956;3.106;2022-08-21T03:57:12;3.53;;;2.40;;
17917;SDS011;9084;50.956;3.106;2022-08-21T03:59:40;4.03;;;2.72;;
17917;SDS011;9084;50.956;3.106;2022-08-21T04:02:07;7.93;;;2.30;;
17917;SDS011;9084;50.956;3.106;2022-08-21T04:04:33;6.30;;;2.95;;
17917;SDS011;9084;50.956;3.106;2022-08-21T04:06:59;7.40;;;2.60;;
17917;SDS011;9084;50.956;3.106;2022-08-21T04:09:26;4.88;;;2.38;;
17917;SDS011;9084;50.956;3.106;2022-08-21T04:11:54;7.05;;;2.25;;
17917;SDS011;9084;50.956;3.106;2022-08-21T04:14:19;5.57;;;2.42;;
17917;SDS011;9084;50.956;3.106;2022-08-21T04:16:48;5.75;;;2.33;;
17917;SDS011;9084;50.956;3.106;2022-08-21T04:19:13;4.05;;;2.42;;
17917;SDS011;9084;50.956;3.106;2022-08-21T04:21:39;3.78;;;2.13;;
17917;SDS011;9084;50.956;3.106;2022-08-21T04:24:08;9.00;;;2.67;;
17917;SDS011;9084;50.956;3.106;2022-08-21T04:26:37;6.40;;;2.08;;
17917;SDS011;9084;50.956;3.106;2022-08-21T04:29:06;4.25;;;2.30;;
17917;SDS011;9084;50.956;3.106;2022-08-21T04:31:32;5.50;;;2.88;;
17917;SDS011;9084;50.956;3.106;2022-08-21T04:33:59;5.20;;;2.08;;
17917;SDS011;9084;50.956;3.106;2022-08-21T04:36:27;5.70;;;2.03;;
17917;SDS011;9084;50.956;3.106;2022-08-21T04:38:53;4.97;;;2.40;;
17917;SDS011;9084;50.956;3.106;2022-08-21T04:41:19;5.35;;;3.22;;
17917;SDS011;9084;50.956;3.106;2022-08-21T04:43:45;5.72;;;2.40;;
17917;SDS011;9084;50.956;3.106;2022-08-21T04:46:13;9.20;;;3.30;;
17917;SDS011;9084;50.956;3.106;2022-08-21T04:48:41;6.80;;;2.97;;
17917;SDS011;9084;50.956;3.106;2022-08-21T04:51:07;4.90;;;2.72;;
17917;SDS011;9084;50.956;3.106;2022-08-21T04:53:44;4.43;;;3.35;;
17917;SDS011;9084;50.956;3.106;2022-08-21T04:56:30;4.40;;;2.78;;
17917;SDS011;9084;50.956;3.106;2022-08-21T04:58:59;5.53;;;2.63;;
17917;SDS011;9084;50.956;3.106;2022-08-21T05:01:29;6.00;;;3.00;;
17917;SDS011;9084;50.956;3.106;2022-08-21T05:04:00;4.07;;;2.83;;
17917;SDS011;9084;50.956;3.106;2022-08-21T05:06:28;5.15;;;2.80;;
17917;SDS011;9084;50.956;3.106;2022-08-21T05:09:03;5.18;;;2.42;;
17917;SDS011;9084;50.956;3.106;2022-08-21T05:11:30;5.38;;;2.33;;
17917;SDS011;9084;50.956;3.106;2022-08-21T05:13:57;6.30;;;2.50;;
17917;SDS011;9084;50.956;3.106;2022-08-21T05:16:23;6.40;;;2.28;;
17917;SDS011;9084;50.956;3.106;2022-08-21T05:18:49;4.43;;;2.63;;
17917;SDS011;9084;50.956;3.106;2022-08-21T05:21:15;4.43;;;2.47;;
17917;SDS011;9084;50.956;3.106;2022-08-21T05:23:46;4.90;;;2.65;;
17917;SDS011;9084;50.956;3.106;2022-08-21T05:26:14;3.70;;;2.85;;
17917;SDS011;9084;50.956;3.106;2022-08-21T05:28:40;6.45;;;2.75;;
17917;SDS011;9084;50.956;3.106;2022-08-21T05:31:06;7.63;;;2.53;;
17917;SDS011;9084;50.956;3.106;2022-08-21T05:33:31;4.55;;;2.70;;
17917;SDS011;9084;50.956;3.106;2022-08-21T05:35:57;4.78;;;2.53;;
17917;SDS011;9084;50.956;3.106;2022-08-21T05:38:23;8.98;;;2.67;;
17917;SDS011;9084;50.956;3.106;2022-08-21T05:40:53;4.78;;;2.90;;
17917;SDS011;9084;50.956;3.106;2022-08-21T05:43:19;3.58;;;2.10;;
17917;SDS011;9084;50.956;3.106;2022-08-21T05:45:46;7.32;;;2.60;;
17917;SDS011;9084;50.956;3.106;2022-08-21T05:50:45;5.97;;;3.13;;
17917;SDS011;9084;50.956;3.106;2022-08-21T05:53:13;7.38;;;2.85;;
17917;SDS011;9084;50.956;3.106;2022-08-21T05:55:41;4.13;;;2.40;;
17917;SDS011;9084;50.956;3.106;2022-08-21T05:58:07;5.55;;;2.50;;
17917;SDS011;9084;50.956;3.106;2022-08-21T06:00:33;5.85;;;2.80;;
17917;SDS011;9084;50.956;3.106;2022-08-21T06:02:59;7.57;;;3.40;;
17917;SDS011;9084;50.956;3.106;2022-08-21T06:05:25;6.32;;;2.58;;
17917;SDS011;9084;50.956;3.106;2022-08-21T06:07:54;6.72;;;2.90;;
17917;SDS011;9084;50.956;3.106;2022-08-21T06:10:20;4.90;;;2.80;;
17917;SDS011;9084;50.956;3.106;2022-08-21T06:12:46;5.22;;;2.80;;
17917;SDS011;9084;50.956;3.106;2022-08-21T06:15:14;4.75;;;2.30;;
17917;SDS011;9084;50.956;3.106;2022-08-21T06:17:40;5.72;;;2.88;;
17917;SDS011;9084;50.956;3.106;2022-08-21T06:20:06;7.03;;;2.85;;
17917;SDS011;9084;50.956;3.106;2022-08-21T06:22:40;4.63;;;2.58;;
17917;SDS011;9084;50.956;3.106;2022-08-21T06:25:06;7.40;;;2.88;;
17917;SDS011;9084;50.956;3.106;2022-08-21T06:27:35;6.40;;;2.83;;
17917;SDS011;9084;50.956;3.106;2022-08-21T06:30:04;7.57;;;2.88;;
17917;SDS011;9084;50.956;3.106;2022-08-21T06:32:31;6.75;;;2.85;;
17917;SDS011;9084;50.956;3.106;2022-08-21T06:35:03;6.80;;;3.13;;
17917;SDS011;9084;50.956;3.106;2022-08-21T06:37:29;5.18;;;2.70;;
17917;SDS011;9084;50.956;3.106;2022-08-21T06:39:56;9.63;;;3.08;;
17917;SDS011;9084;50.956;3.106;2022-08-21T06:42:24;7.03;;;3.60;;
17917;SDS011;9084;50.956;3.106;2022-08-21T06:44:57;6.00;;;2.70;;
17917;SDS011;9084;50.956;3.106;2022-08-21T06:47:23;5.75;;;2.83;;
17917;SDS011;9084;50.956;3.106;2022-08-21T06:49:51;6.28;;;3.08;;
17917;SDS011;9084;50.956;3.106;2022-08-21T06:52:17;5.63;;;3.20;;
17917;SDS011;9084;50.956;3.106;2022-08-21T06:54:42;4.28;;;2.63;;
17917;SDS011;9084;50.956;3.106;2022-08-21T06:57:10;6.60;;;3.10;;
17917;SDS011;9084;50.956;3.106;2022-08-21T06:59:36;7.50;;;3.00;;
17917;SDS011;9084;50.956;3.106;2022-08-21T07:02:02;8.80;;;3.40;;
17917;SDS011;9084;50.956;3.106;2022-08-21T07:04:28;9.35;;;3.70;;
17917;SDS011;9084;50.956;3.106;2022-08-21T07:06:57;7.50;;;2.65;;
17917;SDS011;9084;50.956;3.106;2022-08-21T07:09:23;7.07;;;3.17;;
17917;SDS011;9084;50.956;3.106;2022-08-21T07:11:49;6.32;;;3.22;;
17917;SDS011;9084;50.956;3.106;2022-08-21T07:14:17;5.57;;;3.30;;
17917;SDS011;9084;50.956;3.106;2022-08-21T07:16:44;6.82;;;3.33;;
17917;SDS011;9084;50.956;3.106;2022-08-21T07:19:10;8.25;;;3.20;;
17917;SDS011;9084;50.956;3.106;2022-08-21T07:21:38;7.82;;;3.33;;
17917;SDS011;9084;50.956;3.106;2022-08-21T07:24:06;6.13;;;3.17;;
17917;SDS011;9084;50.956;3.106;2022-08-21T07:26:32;6.03;;;3.15;;
17917;SDS011;9084;50.956;3.106;2022-08-21T07:28:57;6.78;;;2.90;;
17917;SDS011;9084;50.956;3.106;2022-08-21T07:31:26;10.02;;;3.72;;
17917;SDS011;9084;50.956;3.106;2022-08-21T07:33:51;6.10;;;3.08;;
17917;SDS011;9084;50.956;3.106;2022-08-21T07:36:17;7.30;;;3.63;;
17917;SDS011;9084;50.956;3.106;2022-08-21T07:38:43;6.20;;;2.75;;
17917;SDS011;9084;50.956;3.106;2022-08-21T07:41:13;4.32;;;2.45;;
17917;SDS011;9084;50.956;3.106;2022-08-21T07:43:41;6.68;;;3.65;;
17917;SDS011;9084;50.956;3.106;2022-08-21T07:46:06;7.90;;;3.08;;
17917;SDS011;9084;50.956;3.106;2022-08-21T07:48:32;9.57;;;3.22;;
17917;SDS011;9084;50.956;3.106;2022-08-21T07:50:59;6.97;;;3.30;;
17917;SDS011;9084;50.956;3.106;2022-08-21T07:53:32;5.75;;;2.63;;
17917;SDS011;9084;50.956;3.106;2022-08-21T07:55:57;7.20;;;3.22;;
17917;SDS011;9084;50.956;3.106;2022-08-21T07:58:26;6.57;;;3.10;;
17917;SDS011;9084;50.956;3.106;2022-08-21T08:00:54;7.80;;;3.05;;
17917;SDS011;9084;50.956;3.106;2022-08-21T08:03:20;5.50;;;2.97;;
17917;SDS011;9084;50.956;3.106;2022-08-21T08:05:46;5.75;;;2.72;;
17917;SDS011;9084;50.956;3.106;2022-08-21T08:08:12;7.55;;;3.17;;
17917;SDS011;9084;50.956;3.106;2022-08-21T08:10:38;5.20;;;2.58;;
17917;SDS011;9084;50.956;3.106;2022-08-21T08:13:05;5.32;;;3.00;;
17917;SDS011;9084;50.956;3.106;2022-08-21T08:15:30;7.30;;;3.42;;
17917;SDS011;9084;50.956;3.106;2022-08-21T08:17:56;8.73;;;2.67;;
17917;SDS011;9084;50.956;3.106;2022-08-21T08:20:24;5.00;;;2.58;;
17917;SDS011;9084;50.956;3.106;2022-08-21T08:22:53;6.05;;;2.17;;
17917;SDS011;9084;50.956;3.106;2022-08-21T08:25:19;6.43;;;3.25;;
17917;SDS011;9084;50.956;3.106;2022-08-21T08:27:48;8.88;;;3.08;;
17917;SDS011;9084;50.956;3.106;2022-08-21T08:30:15;3.75;;;2.25;;
17917;SDS011;9084;50.956;3.106;2022-08-21T08:32:43;4.03;;;2.05;;
17917;SDS011;9084;50.956;3.106;2022-08-21T08:35:09;6.00;;;2.50;;
17917;SDS011;9084;50.956;3.106;2022-08-21T08:37:36;6.18;;;2.58;;
17917;SDS011;9084;50.956;3.106;2022-08-21T08:40:03;5.40;;;2.35;;
17917;SDS011;9084;50.956;3.106;2022-08-21T08:42:34;7.05;;;2.35;;
17917;SDS011;9084;50.956;3.106;2022-08-21T08:45:05;6.30;;;2.60;;
17917;SDS011;9084;50.956;3.106;2022-08-21T08:47:37;3.38;;;1.83;;
17917;SDS011;9084;50.956;3.106;2022-08-21T08:50:07;5.47;;;2.17;;
17917;SDS011;9084;50.956;3.106;2022-08-21T08:52:40;6.00;;;2.33;;
17917;SDS011;9084;50.956;3.106;2022-08-21T08:55:17;5.15;;;2.13;;
17917;SDS011;9084;50.956;3.106;2022-08-21T08:57:47;4.43;;;2.30;;
17917;SDS011;9084;50.956;3.106;2022-08-21T09:00:16;7.22;;;3.05;;
17917;SDS011;9084;50.956;3.106;2022-08-21T09:02:44;5.03;;;2.25;;
17917;SDS011;9084;50.956;3.106;2022-08-21T09:11:00;5.43;;;1.90;;
17917;SDS011;9084;50.956;3.106;2022-08-21T09:22:15;5.10;;;2.22;;
17917;SDS011;9084;50.956;3.106;2022-08-21T09:25:18;5.00;;;1.55;;
17917;SDS011;9084;50.956;3.106;2022-08-21T09:27:55;6.35;;;1.98;;
17917;SDS011;9084;50.956;3.106;2022-08-21T09:30:27;4.30;;;1.67;;
17917;SDS011;9084;50.956;3.106;2022-08-21T09:32:56;8.73;;;2.25;;
17917;SDS011;9084;50.956;3.106;2022-08-21T09:35:22;5.97;;;1.75;;
17917;SDS011;9084;50.956;3.106;2022-08-21T09:42:58;4.43;;;1.80;;
17917;SDS011;9084;50.956;3.106;2022-08-21T09:45:29;7.78;;;2.13;;
17917;SDS011;9084;50.956;3.106;2022-08-21T09:47:56;5.97;;;1.88;;
17917;SDS011;9084;50.956;3.106;2022-08-21T09:50:36;5.45;;;2.00;;
17917;SDS011;9084;50.956;3.106;2022-08-21T09:53:04;5.95;;;2.22;;
17917;SDS011;9084;50.956;3.106;2022-08-21T09:58:34;6.82;;;2.10;;
17917;SDS011;9084;50.956;3.106;2022-08-21T10:01:03;6.68;;;2.50;;
17917;SDS011;9084;50.956;3.106;2022-08-21T10:03:30;5.20;;;2.30;;
17917;SDS011;9084;50.956;3.106;2022-08-21T10:08:29;4.63;;;1.60;;
17917;SDS011;9084;50.956;3.106;2022-08-21T10:11:00;5.22;;;1.95;;
17917;SDS011;9084;50.956;3.106;2022-08-21T10:16:28;4.65;;;1.83;;
17917;SDS011;9084;50.956;3.106;2022-08-21T10:35:53;5.28;;;1.90;;
17917;SDS011;9084;50.956;3.106;2022-08-21T10:57:54;4.22;;;1.90;;
17917;SDS011;9084;50.956;3.106;2022-08-21T11:00:35;4.13;;;1.88;;
17917;SDS011;9084;50.956;3.106;2022-08-21T11:06:16;5.43;;;1.80;;
17917;SDS011;9084;50.956;3.106;2022-08-21T11:08:50;5.32;;;2.13;;
17917;SDS011;9084;50.956;3.106;2022-08-21T11:11:26;6.03;;;2.10;;
17917;SDS011;9084;50.956;3.106;2022-08-21T11:16:44;5.63;;;2.00;;
17917;SDS011;9084;50.956;3.106;2022-08-21T11:22:05;5.15;;;1.67;;
17917;SDS011;9084;50.956;3.106;2022-08-21T11:27:43;5.18;;;2.00;;
17917;SDS011;9084;50.956;3.106;2022-08-21T11:30:11;5.10;;;2.20;;
17917;SDS011;9084;50.956;3.106;2022-08-21T11:38:51;5.35;;;1.90;;
17917;SDS011;9084;50.956;3.106;2022-08-21T11:43:53;5.05;;;2.13;;
17917;SDS011;9084;50.956;3.106;2022-08-21T11:46:28;4.70;;;1.98;;
17917;SDS011;9084;50.956;3.106;2022-08-21T11:52:02;4.45;;;1.83;;
17917;SDS011;9084;50.956;3.106;2022-08-21T11:54:49;4.85;;;1.80;;
17917;SDS011;9084;50.956;3.106;2022-08-21T11:57:37;3.08;;;1.63;;
17917;SDS011;9084;50.956;3.106;2022-08-21T12:00:20;4.80;;;1.92;;
17917;SDS011;9084;50.956;3.106;2022-08-21T12:02:54;6.93;;;2.10;;
17917;SDS011;9084;50.956;3.106;2022-08-21T12:08:05;5.72;;;1.77;;
17917;SDS011;9084;50.956;3.106;2022-08-21T12:10:41;6.55;;;2.25;;
17917;SDS011;9084;50.956;3.106;2022-08-21T12:13:21;6.25;;;2.17;;
17917;SDS011;9084;50.956;3.106;2022-08-21T12:15:53;3.95;;;1.92;;
17917;SDS011;9084;50.956;3.106;2022-08-21T12:18:40;5.78;;;2.17;;
17917;SDS011;9084;50.956;3.106;2022-08-21T12:21:19;4.53;;;1.98;;
17917;SDS011;9084;50.956;3.106;2022-08-21T12:26:52;6.75;;;2.30;;
17917;SDS011;9084;50.956;3.106;2022-08-21T12:29:33;5.40;;;1.75;;
17917;SDS011;9084;50.956;3.106;2022-08-21T12:34:38;5.05;;;1.60;;
17917;SDS011;9084;50.956;3.106;2022-08-21T12:40:00;8.38;;;2.38;;
17917;SDS011;9084;50.956;3.106;2022-08-21T12:42:36;6.55;;;2.13;;
17917;SDS011;9084;50.956;3.106;2022-08-21T12:45:20;3.85;;;1.75;;
17917;SDS011;9084;50.956;3.106;2022-08-21T12:47:58;5.15;;;1.45;;
17917;SDS011;9084;50.956;3.106;2022-08-21T12:50:40;7.53;;;1.75;;
17917;SDS011;9084;50.956;3.106;2022-08-21T12:53:23;6.53;;;2.47;;
17917;SDS011;9084;50.956;3.106;2022-08-21T12:55:50;5.53;;;1.90;;
17917;SDS011;9084;50.956;3.106;2022-08-21T12:58:17;4.75;;;1.77;;
17917;SDS011;9084;50.956;3.106;2022-08-21T13:00:47;4.72;;;1.85;;
17917;SDS011;9084;50.956;3.106;2022-08-21T13:03:18;7.88;;;2.53;;
17917;SDS011;9084;50.956;3.106;2022-08-21T13:05:44;5.63;;;1.75;;
17917;SDS011;9084;50.956;3.106;2022-08-21T13:08:13;6.30;;;2.13;;
17917;SDS011;9084;50.956;3.106;2022-08-21T13:10:39;6.55;;;2.03;;
17917;SDS011;9084;50.956;3.106;2022-08-21T13:13:10;7.22;;;2.22;;
17917;SDS011;9084;50.956;3.106;2022-08-21T13:15:44;3.90;;;1.55;;
17917;SDS011;9084;50.956;3.106;2022-08-21T13:18:18;6.13;;;1.90;;
17917;SDS011;9084;50.956;3.106;2022-08-21T13:21:03;4.75;;;1.98;;
17917;SDS011;9084;50.956;3.106;2022-08-21T13:23:31;4.35;;;2.10;;
17917;SDS011;9084;50.956;3.106;2022-08-21T13:25:57;6.05;;;2.08;;
17917;SDS011;9084;50.956;3.106;2022-08-21T13:28:36;4.53;;;2.05;;
17917;SDS011;9084;50.956;3.106;2022-08-21T13:31:05;5.18;;;2.05;;
17917;SDS011;9084;50.956;3.106;2022-08-21T13:33:37;4.22;;;1.75;;
17917;SDS011;9084;50.956;3.106;2022-08-21T13:36:11;5.50;;;1.92;;
17917;SDS011;9084;50.956;3.106;2022-08-21T13:38:43;4.47;;;1.63;;
17917;SDS011;9084;50.956;3.106;2022-08-21T13:43:48;5.25;;;1.90;;
17917;SDS011;9084;50.956;3.106;2022-08-21T13:46:20;5.50;;;1.90;;
17917;SDS011;9084;50.956;3.106;2022-08-21T13:48:48;4.00;;;1.80;;
17917;SDS011;9084;50.956;3.106;2022-08-21T13:51:15;8.00;;;1.70;;
17917;SDS011;9084;50.956;3.106;2022-08-21T13:53:46;5.75;;;1.92;;
17917;SDS011;9084;50.956;3.106;2022-08-21T13:58:53;6.50;;;2.70;;
17917;SDS011;9084;50.956;3.106;2022-08-21T14:04:29;5.82;;;1.73;;
17917;SDS011;9084;50.956;3.106;2022-08-21T14:07:19;4.10;;;1.50;;
17917;SDS011;9084;50.956;3.106;2022-08-21T14:09:52;4.57;;;1.58;;
17917;SDS011;9084;50.956;3.106;2022-08-21T14:12:24;5.60;;;2.30;;
17917;SDS011;9084;50.956;3.106;2022-08-21T14:14:58;4.85;;;2.10;;
17917;SDS011;9084;50.956;3.106;2022-08-21T14:17:37;4.53;;;1.65;;
17917;SDS011;9084;50.956;3.106;2022-08-21T14:20:07;6.50;;;2.20;;
17917;SDS011;9084;50.956;3.106;2022-08-21T14:28:02;4.63;;;1.80;;
17917;SDS011;9084;50.956;3.106;2022-08-21T14:30:40;4.53;;;1.70;;
17917;SDS011;9084;50.956;3.106;2022-08-21T14:33:11;5.20;;;2.00;;
17917;SDS011;9084;50.956;3.106;2022-08-21T14:35:41;4.80;;;1.90;;
17917;SDS011;9084;50.956;3.106;2022-08-21T14:38:13;4.05;;;1.60;;
17917;SDS011;9084;50.956;3.106;2022-08-21T14:40:42;7.28;;;2.60;;
17917;SDS011;9084;50.956;3.106;2022-08-21T14:43:15;12.25;;;2.10;;
17917;SDS011;9084;50.956;3.106;2022-08-21T14:45:42;6.50;;;1.98;;
17917;SDS011;9084;50.956;3.106;2022-08-21T14:48:08;6.80;;;1.90;;
17917;SDS011;9084;50.956;3.106;2022-08-21T14:50:34;4.75;;;2.03;;
17917;SDS011;9084;50.956;3.106;2022-08-21T14:53:03;5.88;;;2.05;;
17917;SDS011;9084;50.956;3.106;2022-08-21T14:55:29;5.18;;;1.67;;
17917;SDS011;9084;50.956;3.106;2022-08-21T14:57:55;4.28;;;1.90;;
17917;SDS011;9084;50.956;3.106;2022-08-21T15:00:23;5.80;;;2.42;;
17917;SDS011;9084;50.956;3.106;2022-08-21T15:02:50;6.65;;;1.88;;
17917;SDS011;9084;50.956;3.106;2022-08-21T15:05:16;5.93;;;2.15;;
17917;SDS011;9084;50.956;3.106;2022-08-21T15:07:43;5.05;;;1.85;;
17917;SDS011;9084;50.956;3.106;2022-08-21T15:10:09;5.00;;;1.80;;
17917;SDS011;9084;50.956;3.106;2022-08-21T15:12:35;4.03;;;2.05;;
17917;SDS011;9084;50.956;3.106;2022-08-21T15:15:05;5.93;;;2.13;;
17917;SDS011;9084;50.956;3.106;2022-08-21T15:17:35;3.60;;;1.55;;
17917;SDS011;9084;50.956;3.106;2022-08-21T15:20:01;3.67;;;1.70;;
17917;SDS011;9084;50.956;3.106;2022-08-21T15:22:26;3.85;;;1.83;;
17917;SDS011;9084;50.956;3.106;2022-08-21T15:24:52;6.07;;;2.13;;
17917;SDS011;9084;50.956;3.106;2022-08-21T15:27:21;5.88;;;1.90;;
17917;SDS011;9084;50.956;3.106;2022-08-21T15:29:46;3.92;;;1.80;;
17917;SDS011;9084;50.956;3.106;2022-08-21T15:32:17;4.20;;;1.70;;
17917;SDS011;9084;50.956;3.106;2022-08-21T15:34:50;3.97;;;1.75;;
17917;SDS011;9084;50.956;3.106;2022-08-21T15:37:17;5.57;;;1.88;;
17917;SDS011;9084;50.956;3.106;2022-08-21T15:39:45;7.07;;;2.55;;
17917;SDS011;9084;50.956;3.106;2022-08-21T15:42:11;2.75;;;1.85;;
17917;SDS011;9084;50.956;3.106;2022-08-21T15:44:41;4.35;;;1.90;;
17917;SDS011;9084;50.956;3.106;2022-08-21T15:47:14;5.15;;;2.15;;
17917;SDS011;9084;50.956;3.106;2022-08-21T15:49:49;5.53;;;1.85;;
17917;SDS011;9084;50.956;3.106;2022-08-21T15:52:16;6.65;;;2.47;;
17917;SDS011;9084;50.956;3.106;2022-08-21T15:54:43;7.72;;;2.42;;
17917;SDS011;9084;50.956;3.106;2022-08-21T15:57:11;4.80;;;2.00;;
17917;SDS011;9084;50.956;3.106;2022-08-21T15:59:40;4.38;;;2.08;;
17917;SDS011;9084;50.956;3.106;2022-08-21T16:02:12;8.68;;;2.83;;
17917;SDS011;9084;50.956;3.106;2022-08-21T16:04:41;5.93;;;2.35;;
17917;SDS011;9084;50.956;3.106;2022-08-21T16:07:06;11.95;;;2.65;;
17917;SDS011;9084;50.956;3.106;2022-08-21T16:09:32;9.23;;;2.83;;
17917;SDS011;9084;50.956;3.106;2022-08-21T16:12:00;7.22;;;2.50;;
17917;SDS011;9084;50.956;3.106;2022-08-21T16:14:26;7.30;;;2.38;;
17917;SDS011;9084;50.956;3.106;2022-08-21T16:16:54;8.18;;;2.75;;
17917;SDS011;9084;50.956;3.106;2022-08-21T16:19:22;8.25;;;3.03;;
17917;SDS011;9084;50.956;3.106;2022-08-21T16:21:54;6.85;;;3.00;;
17917;SDS011;9084;50.956;3.106;2022-08-21T16:24:22;5.43;;;2.63;;
17917;SDS011;9084;50.956;3.106;2022-08-21T16:26:48;5.05;;;2.13;;
17917;SDS011;9084;50.956;3.106;2022-08-21T16:29:14;8.00;;;2.40;;
17917;SDS011;9084;50.956;3.106;2022-08-21T16:31:41;8.63;;;2.72;;
17917;SDS011;9084;50.956;3.106;2022-08-21T16:34:13;7.75;;;2.80;;
17917;SDS011;9084;50.956;3.106;2022-08-21T16:36:42;8.73;;;2.45;;
17917;SDS011;9084;50.956;3.106;2022-08-21T16:39:10;10.40;;;2.92;;
17917;SDS011;9084;50.956;3.106;2022-08-21T16:41:36;9.00;;;2.90;;
17917;SDS011;9084;50.956;3.106;2022-08-21T16:44:03;9.88;;;2.65;;
17917;SDS011;9084;50.956;3.106;2022-08-21T16:46:32;8.32;;;2.53;;
17917;SDS011;9084;50.956;3.106;2022-08-21T16:49:02;9.23;;;2.85;;
17917;SDS011;9084;50.956;3.106;2022-08-21T16:51:30;6.25;;;2.15;;
17917;SDS011;9084;50.956;3.106;2022-08-21T16:53:57;11.98;;;3.15;;
17917;SDS011;9084;50.956;3.106;2022-08-21T16:56:22;9.50;;;2.88;;
17917;SDS011;9084;50.956;3.106;2022-08-21T16:58:50;6.78;;;2.63;;
17917;SDS011;9084;50.956;3.106;2022-08-21T17:01:19;7.22;;;2.70;;
17917;SDS011;9084;50.956;3.106;2022-08-21T17:03:50;6.63;;;2.53;;
17917;SDS011;9084;50.956;3.106;2022-08-21T17:06:17;7.45;;;2.80;;
17917;SDS011;9084;50.956;3.106;2022-08-21T17:08:44;7.55;;;2.67;;